sensor_id;sensor_type;location;lat;lon;timestamp;P1;durP1;ratioP1;P2;durP2;ratioP2
38425;SDS011;24210;51.460;6.148;2022-11-15T00:01:24;15.10;;;9.77;;
38425;SDS011;24210;51.460;6.148;2022-11-15T00:03:52;12.57;;;9.83;;
38425;SDS011;24210;51.460;6.148;2022-11-15T00:06:17;20.45;;;12.05;;
38425;SDS011;24210;51.460;6.148;2022-11-15T00:08:42;16.03;;;11.60;;
38425;SDS011;24210;51.460;6.148;2022-11-15T00:11:08;15.10;;;11.63;;
38425;SDS011;24210;51.460;6.148;2022-11-15T00:13:34;16.73;;;10.98;;
38425;SDS011;24210;51.460;6.148;2022-11-15T00:16:00;14.03;;;10.20;;
38425;SDS011;24210;51.460;6.148;2022-11-15T00:18:26;18.33;;;11.52;;
38425;SDS011;24210;51.460;6.148;2022-11-15T00:20:51;17.03;;;11.07;;
38425;SDS011;24210;51.460;6.148;2022-11-15T00:23:16;15.83;;;11.33;;
38425;SDS011;24210;51.460;6.148;2022-11-15T00:25:41;16.97;;;9.70;;
38425;SDS011;24210;51.460;6.148;2022-11-15T00:28:07;15.83;;;11.43;;
38425;SDS011;24210;51.460;6.148;2022-11-15T00:30:32;16.43;;;10.73;;
38425;SDS011;24210;51.460;6.148;2022-11-15T00:33:01;15.07;;;10.77;;
38425;SDS011;24210;51.460;6.148;2022-11-15T00:35:26;12.57;;;10.85;;
38425;SDS011;24210;51.460;6.148;2022-11-15T00:37:52;14.17;;;11.00;;
38425;SDS011;24210;51.460;6.148;2022-11-15T00:40:17;13.10;;;10.13;;
38425;SDS011;24210;51.460;6.148;2022-11-15T00:42:42;14.40;;;11.10;;
38425;SDS011;24210;51.460;6.148;2022-11-15T00:45:08;15.83;;;11.13;;
38425;SDS011;24210;51.460;6.148;2022-11-15T00:47:33;16.57;;;11.50;;
38425;SDS011;24210;51.460;6.148;2022-11-15T00:49:58;14.17;;;10.37;;
38425;SDS011;24210;51.460;6.148;2022-11-15T00:52:24;17.50;;;11.30;;
38425;SDS011;24210;51.460;6.148;2022-11-15T00:54:49;13.83;;;10.23;;
38425;SDS011;24210;51.460;6.148;2022-11-15T00:57:14;15.60;;;9.70;;
38425;SDS011;24210;51.460;6.148;2022-11-15T00:59:39;17.83;;;13.30;;
38425;SDS011;24210;51.460;6.148;2022-11-15T01:02:05;16.50;;;11.00;;
38425;SDS011;24210;51.460;6.148;2022-11-15T01:04:30;14.47;;;11.50;;
38425;SDS011;24210;51.460;6.148;2022-11-15T01:06:55;17.90;;;10.13;;
38425;SDS011;24210;51.460;6.148;2022-11-15T01:09:20;15.47;;;11.57;;
38425;SDS011;24210;51.460;6.148;2022-11-15T01:11:45;14.93;;;10.70;;
38425;SDS011;24210;51.460;6.148;2022-11-15T01:14:11;14.77;;;10.70;;
38425;SDS011;24210;51.460;6.148;2022-11-15T01:16:36;14.23;;;11.27;;
38425;SDS011;24210;51.460;6.148;2022-11-15T01:19:01;17.10;;;11.40;;
38425;SDS011;24210;51.460;6.148;2022-11-15T01:21:27;16.20;;;10.80;;
38425;SDS011;24210;51.460;6.148;2022-11-15T01:23:53;15.40;;;10.67;;
38425;SDS011;24210;51.460;6.148;2022-11-15T01:26:19;15.98;;;10.75;;
38425;SDS011;24210;51.460;6.148;2022-11-15T01:28:44;13.23;;;10.27;;
38425;SDS011;24210;51.460;6.148;2022-11-15T01:31:11;14.33;;;10.40;;
38425;SDS011;24210;51.460;6.148;2022-11-15T01:33:37;14.23;;;11.05;;
38425;SDS011;24210;51.460;6.148;2022-11-15T01:36:05;12.53;;;9.80;;
38425;SDS011;24210;51.460;6.148;2022-11-15T01:38:31;19.13;;;10.57;;
38425;SDS011;24210;51.460;6.148;2022-11-15T01:40:56;13.70;;;10.60;;
38425;SDS011;24210;51.460;6.148;2022-11-15T01:43:23;15.33;;;11.03;;
38425;SDS011;24210;51.460;6.148;2022-11-15T01:45:50;16.10;;;10.43;;
38425;SDS011;24210;51.460;6.148;2022-11-15T01:48:16;16.20;;;11.05;;
38425;SDS011;24210;51.460;6.148;2022-11-15T01:50:42;15.20;;;10.70;;
38425;SDS011;24210;51.460;6.148;2022-11-15T01:53:07;15.27;;;11.30;;
38425;SDS011;24210;51.460;6.148;2022-11-15T01:55:32;14.87;;;10.33;;
38425;SDS011;24210;51.460;6.148;2022-11-15T01:57:59;16.97;;;10.80;;
38425;SDS011;24210;51.460;6.148;2022-11-15T02:00:26;17.30;;;9.60;;
38425;SDS011;24210;51.460;6.148;2022-11-15T02:02:52;19.20;;;11.37;;
38425;SDS011;24210;51.460;6.148;2022-11-15T02:05:17;17.63;;;12.80;;
38425;SDS011;24210;51.460;6.148;2022-11-15T02:07:43;15.90;;;9.93;;
38425;SDS011;24210;51.460;6.148;2022-11-15T02:10:09;16.47;;;12.20;;
38425;SDS011;24210;51.460;6.148;2022-11-15T02:12:35;14.73;;;10.73;;
38425;SDS011;24210;51.460;6.148;2022-11-15T02:15:01;12.77;;;9.23;;
38425;SDS011;24210;51.460;6.148;2022-11-15T02:25:41;14.20;;;9.90;;
38425;SDS011;24210;51.460;6.148;2022-11-15T02:28:34;12.95;;;10.40;;
38425;SDS011;24210;51.460;6.148;2022-11-15T02:31:10;16.05;;;11.60;;
38425;SDS011;24210;51.460;6.148;2022-11-15T02:33:53;13.32;;;10.15;;
38425;SDS011;24210;51.460;6.148;2022-11-15T02:37:03;15.85;;;10.63;;
38425;SDS011;24210;51.460;6.148;2022-11-15T02:44:24;15.07;;;10.10;;
38425;SDS011;24210;51.460;6.148;2022-11-15T02:46:55;13.85;;;10.73;;
38425;SDS011;24210;51.460;6.148;2022-11-15T02:52:15;15.73;;;10.48;;
38425;SDS011;24210;51.460;6.148;2022-11-15T02:54:40;15.15;;;10.35;;
38425;SDS011;24210;51.460;6.148;2022-11-15T02:57:13;12.57;;;10.23;;
38425;SDS011;24210;51.460;6.148;2022-11-15T03:05:17;13.30;;;10.77;;
38425;SDS011;24210;51.460;6.148;2022-11-15T03:07:18;14.80;;;11.15;;
38425;SDS011;24210;51.460;6.148;2022-11-15T03:10:02;13.82;;;10.50;;
38425;SDS011;24210;51.460;6.148;2022-11-15T03:12:33;14.60;;;10.02;;
38425;SDS011;24210;51.460;6.148;2022-11-15T03:15:05;15.52;;;10.65;;
38425;SDS011;24210;51.460;6.148;2022-11-15T03:17:36;15.27;;;10.20;;
38425;SDS011;24210;51.460;6.148;2022-11-15T03:20:04;15.23;;;9.75;;
38425;SDS011;24210;51.460;6.148;2022-11-15T03:22:33;16.40;;;9.80;;
38425;SDS011;24210;51.460;6.148;2022-11-15T03:25:00;13.95;;;10.38;;
38425;SDS011;24210;51.460;6.148;2022-11-15T03:27:27;14.55;;;10.10;;
38425;SDS011;24210;51.460;6.148;2022-11-15T03:29:58;13.05;;;9.70;;
38425;SDS011;24210;51.460;6.148;2022-11-15T03:32:25;17.83;;;9.93;;
38425;SDS011;24210;51.460;6.148;2022-11-15T03:37:16;12.40;;;9.17;;
38425;SDS011;24210;51.460;6.148;2022-11-15T03:39:42;15.40;;;9.67;;
38425;SDS011;24210;51.460;6.148;2022-11-15T03:49:36;12.23;;;9.33;;
38425;SDS011;24210;51.460;6.148;2022-11-15T03:52:03;14.07;;;8.85;;
38425;SDS011;24210;51.460;6.148;2022-11-15T03:54:29;14.02;;;10.90;;
38425;SDS011;24210;51.460;6.148;2022-11-15T03:56:55;11.17;;;8.43;;
38425;SDS011;24210;51.460;6.148;2022-11-15T03:59:20;12.63;;;9.67;;
38425;SDS011;24210;51.460;6.148;2022-11-15T04:01:45;15.13;;;10.20;;
38425;SDS011;24210;51.460;6.148;2022-11-15T04:04:10;11.53;;;9.50;;
38425;SDS011;24210;51.460;6.148;2022-11-15T04:06:36;15.40;;;9.87;;
38425;SDS011;24210;51.460;6.148;2022-11-15T04:09:01;13.23;;;9.63;;
38425;SDS011;24210;51.460;6.148;2022-11-15T04:11:26;15.30;;;10.37;;
38425;SDS011;24210;51.460;6.148;2022-11-15T04:13:52;13.13;;;9.57;;
38425;SDS011;24210;51.460;6.148;2022-11-15T04:16:17;13.13;;;9.73;;
38425;SDS011;24210;51.460;6.148;2022-11-15T04:18:42;17.27;;;10.27;;
38425;SDS011;24210;51.460;6.148;2022-11-15T04:21:07;13.73;;;10.17;;
38425;SDS011;24210;51.460;6.148;2022-11-15T04:23:51;13.23;;;9.55;;
38425;SDS011;24210;51.460;6.148;2022-11-15T04:26:20;11.63;;;10.05;;
38425;SDS011;24210;51.460;6.148;2022-11-15T04:28:46;17.17;;;9.80;;
38425;SDS011;24210;51.460;6.148;2022-11-15T04:31:30;14.20;;;9.73;;
38425;SDS011;24210;51.460;6.148;2022-11-15T04:33:56;15.67;;;9.60;;
38425;SDS011;24210;51.460;6.148;2022-11-15T04:36:22;12.50;;;9.07;;
38425;SDS011;24210;51.460;6.148;2022-11-15T04:39:06;17.15;;;9.10;;
38425;SDS011;24210;51.460;6.148;2022-11-15T04:41:31;13.40;;;9.00;;
38425;SDS011;24210;51.460;6.148;2022-11-15T04:43:56;10.30;;;7.70;;
38425;SDS011;24210;51.460;6.148;2022-11-15T04:46:22;10.17;;;8.27;;
38425;SDS011;24210;51.460;6.148;2022-11-15T04:48:47;14.73;;;9.30;;
38425;SDS011;24210;51.460;6.148;2022-11-15T04:51:12;9.83;;;8.20;;
38425;SDS011;24210;51.460;6.148;2022-11-15T04:53:37;12.00;;;9.23;;
38425;SDS011;24210;51.460;6.148;2022-11-15T04:56:03;9.43;;;8.43;;
38425;SDS011;24210;51.460;6.148;2022-11-15T04:58:28;16.33;;;9.53;;
38425;SDS011;24210;51.460;6.148;2022-11-15T05:00:53;12.93;;;8.57;;
38425;SDS011;24210;51.460;6.148;2022-11-15T05:03:19;12.77;;;8.33;;
38425;SDS011;24210;51.460;6.148;2022-11-15T05:06:02;11.95;;;9.07;;
38425;SDS011;24210;51.460;6.148;2022-11-15T05:08:28;10.57;;;8.73;;
38425;SDS011;24210;51.460;6.148;2022-11-15T05:10:53;9.03;;;7.37;;
38425;SDS011;24210;51.460;6.148;2022-11-15T05:13:18;12.37;;;7.73;;
38425;SDS011;24210;51.460;6.148;2022-11-15T05:15:43;11.93;;;8.53;;
38425;SDS011;24210;51.460;6.148;2022-11-15T05:18:09;19.27;;;8.43;;
38425;SDS011;24210;51.460;6.148;2022-11-15T05:20:34;11.67;;;8.47;;
38425;SDS011;24210;51.460;6.148;2022-11-15T05:22:59;9.90;;;7.97;;
38425;SDS011;24210;51.460;6.148;2022-11-15T05:25:24;12.27;;;9.57;;
38425;SDS011;24210;51.460;6.148;2022-11-15T05:27:50;10.43;;;7.83;;
38425;SDS011;24210;51.460;6.148;2022-11-15T05:30:15;11.70;;;7.73;;
38425;SDS011;24210;51.460;6.148;2022-11-15T05:32:41;8.43;;;7.53;;
38425;SDS011;24210;51.460;6.148;2022-11-15T05:35:06;12.50;;;7.57;;
38425;SDS011;24210;51.460;6.148;2022-11-15T05:37:33;12.73;;;8.48;;
38425;SDS011;24210;51.460;6.148;2022-11-15T05:39:58;10.17;;;7.67;;
38425;SDS011;24210;51.460;6.148;2022-11-15T05:42:23;10.90;;;8.43;;
38425;SDS011;24210;51.460;6.148;2022-11-15T05:44:49;10.60;;;7.67;;
38425;SDS011;24210;51.460;6.148;2022-11-15T05:47:16;9.27;;;8.23;;
38425;SDS011;24210;51.460;6.148;2022-11-15T05:49:42;10.80;;;7.63;;
38425;SDS011;24210;51.460;6.148;2022-11-15T05:52:09;11.38;;;8.40;;
38425;SDS011;24210;51.460;6.148;2022-11-15T05:54:36;10.60;;;7.93;;
38425;SDS011;24210;51.460;6.148;2022-11-15T05:57:02;12.90;;;8.40;;
38425;SDS011;24210;51.460;6.148;2022-11-15T05:59:29;9.60;;;7.85;;
38425;SDS011;24210;51.460;6.148;2022-11-15T06:01:55;9.18;;;8.18;;
38425;SDS011;24210;51.460;6.148;2022-11-15T06:04:20;10.63;;;8.27;;
38425;SDS011;24210;51.460;6.148;2022-11-15T06:06:45;10.47;;;7.67;;
38425;SDS011;24210;51.460;6.148;2022-11-15T06:09:11;13.43;;;7.90;;
38425;SDS011;24210;51.460;6.148;2022-11-15T06:11:36;13.97;;;8.07;;
38425;SDS011;24210;51.460;6.148;2022-11-15T06:14:01;10.70;;;7.83;;
38425;SDS011;24210;51.460;6.148;2022-11-15T06:16:26;13.27;;;8.33;;
38425;SDS011;24210;51.460;6.148;2022-11-15T06:18:51;9.57;;;7.73;;
38425;SDS011;24210;51.460;6.148;2022-11-15T06:21:17;11.30;;;7.73;;
38425;SDS011;24210;51.460;6.148;2022-11-15T06:23:42;9.23;;;7.43;;
38425;SDS011;24210;51.460;6.148;2022-11-15T06:26:07;12.70;;;8.67;;
38425;SDS011;24210;51.460;6.148;2022-11-15T06:28:32;8.63;;;7.13;;
38425;SDS011;24210;51.460;6.148;2022-11-15T06:31:08;10.20;;;8.73;;
38425;SDS011;24210;51.460;6.148;2022-11-15T06:33:35;11.32;;;7.38;;
38425;SDS011;24210;51.460;6.148;2022-11-15T06:36:04;10.60;;;7.40;;
38425;SDS011;24210;51.460;6.148;2022-11-15T06:38:30;11.57;;;7.75;;
38425;SDS011;24210;51.460;6.148;2022-11-15T06:41:00;11.07;;;7.83;;
38425;SDS011;24210;51.460;6.148;2022-11-15T06:43:25;8.05;;;7.25;;
38425;SDS011;24210;51.460;6.148;2022-11-15T06:45:51;8.77;;;7.20;;
38425;SDS011;24210;51.460;6.148;2022-11-15T06:48:16;8.53;;;7.57;;
38425;SDS011;24210;51.460;6.148;2022-11-15T06:50:41;10.30;;;7.80;;
38425;SDS011;24210;51.460;6.148;2022-11-15T06:53:06;10.63;;;7.23;;
38425;SDS011;24210;51.460;6.148;2022-11-15T06:55:31;10.23;;;7.53;;
38425;SDS011;24210;51.460;6.148;2022-11-15T06:57:57;7.93;;;6.97;;
38425;SDS011;24210;51.460;6.148;2022-11-15T07:00:22;10.40;;;7.53;;
38425;SDS011;24210;51.460;6.148;2022-11-15T07:02:48;6.97;;;5.73;;
38425;SDS011;24210;51.460;6.148;2022-11-15T07:05:13;7.80;;;5.90;;
38425;SDS011;24210;51.460;6.148;2022-11-15T07:07:39;9.07;;;6.07;;
38425;SDS011;24210;51.460;6.148;2022-11-15T07:10:04;4.10;;;3.67;;
38425;SDS011;24210;51.460;6.148;2022-11-15T07:12:30;3.00;;;2.70;;
38425;SDS011;24210;51.460;6.148;2022-11-15T07:14:55;5.33;;;3.10;;
38425;SDS011;24210;51.460;6.148;2022-11-15T07:17:20;4.63;;;2.97;;
38425;SDS011;24210;51.460;6.148;2022-11-15T07:19:45;5.07;;;3.00;;
38425;SDS011;24210;51.460;6.148;2022-11-15T07:22:11;3.80;;;3.50;;
38425;SDS011;24210;51.460;6.148;2022-11-15T07:24:36;5.17;;;3.17;;
38425;SDS011;24210;51.460;6.148;2022-11-15T07:27:01;5.03;;;3.23;;
38425;SDS011;24210;51.460;6.148;2022-11-15T07:29:26;6.27;;;2.90;;
38425;SDS011;24210;51.460;6.148;2022-11-15T07:31:52;3.77;;;3.43;;
38425;SDS011;24210;51.460;6.148;2022-11-15T07:34:17;5.27;;;3.50;;
38425;SDS011;24210;51.460;6.148;2022-11-15T07:36:42;3.90;;;3.17;;
38425;SDS011;24210;51.460;6.148;2022-11-15T07:39:07;4.17;;;3.77;;
38425;SDS011;24210;51.460;6.148;2022-11-15T07:41:33;9.27;;;4.30;;
38425;SDS011;24210;51.460;6.148;2022-11-15T07:43:58;7.63;;;4.07;;
38425;SDS011;24210;51.460;6.148;2022-11-15T07:46:23;7.90;;;3.83;;
38425;SDS011;24210;51.460;6.148;2022-11-15T07:48:49;8.33;;;4.17;;
38425;SDS011;24210;51.460;6.148;2022-11-15T07:51:15;9.77;;;3.40;;
38425;SDS011;24210;51.460;6.148;2022-11-15T07:53:41;6.93;;;3.28;;
38425;SDS011;24210;51.460;6.148;2022-11-15T07:56:06;7.67;;;3.07;;
38425;SDS011;24210;51.460;6.148;2022-11-15T07:58:32;6.28;;;3.70;;
38425;SDS011;24210;51.460;6.148;2022-11-15T08:00:57;4.27;;;2.80;;
38425;SDS011;24210;51.460;6.148;2022-11-15T08:03:23;5.93;;;3.03;;
38425;SDS011;24210;51.460;6.148;2022-11-15T08:05:51;4.67;;;2.73;;
38425;SDS011;24210;51.460;6.148;2022-11-15T08:08:16;5.05;;;2.47;;
38425;SDS011;24210;51.460;6.148;2022-11-15T08:10:42;3.70;;;2.97;;
38425;SDS011;24210;51.460;6.148;2022-11-15T08:13:08;3.13;;;2.27;;
38425;SDS011;24210;51.460;6.148;2022-11-15T08:15:33;6.07;;;2.60;;
38425;SDS011;24210;51.460;6.148;2022-11-15T08:18:00;5.38;;;2.58;;
38425;SDS011;24210;51.460;6.148;2022-11-15T08:22:51;11.20;;;4.33;;
38425;SDS011;24210;51.460;6.148;2022-11-15T08:25:16;2.53;;;2.33;;
38425;SDS011;24210;51.460;6.148;2022-11-15T08:27:42;8.40;;;2.80;;
38425;SDS011;24210;51.460;6.148;2022-11-15T08:30:07;5.17;;;3.13;;
38425;SDS011;24210;51.460;6.148;2022-11-15T08:32:32;4.63;;;3.33;;
38425;SDS011;24210;51.460;6.148;2022-11-15T08:34:57;5.53;;;3.57;;
38425;SDS011;24210;51.460;6.148;2022-11-15T08:37:23;5.07;;;2.63;;
38425;SDS011;24210;51.460;6.148;2022-11-15T08:39:48;6.17;;;4.00;;
38425;SDS011;24210;51.460;6.148;2022-11-15T08:42:13;5.87;;;3.50;;
38425;SDS011;24210;51.460;6.148;2022-11-15T08:44:39;6.18;;;2.97;;
38425;SDS011;24210;51.460;6.148;2022-11-15T08:47:05;5.63;;;3.53;;
38425;SDS011;24210;51.460;6.148;2022-11-15T08:49:30;5.77;;;3.80;;
38425;SDS011;24210;51.460;6.148;2022-11-15T08:51:55;3.87;;;3.23;;
38425;SDS011;24210;51.460;6.148;2022-11-15T08:54:20;5.43;;;3.50;;
38425;SDS011;24210;51.460;6.148;2022-11-15T08:56:46;4.43;;;3.00;;
38425;SDS011;24210;51.460;6.148;2022-11-15T08:59:11;3.87;;;3.00;;
38425;SDS011;24210;51.460;6.148;2022-11-15T09:01:36;4.00;;;3.17;;
38425;SDS011;24210;51.460;6.148;2022-11-15T09:04:01;5.70;;;3.07;;
38425;SDS011;24210;51.460;6.148;2022-11-15T09:06:27;4.97;;;2.40;;
38425;SDS011;24210;51.460;6.148;2022-11-15T09:08:52;3.70;;;2.70;;
38425;SDS011;24210;51.460;6.148;2022-11-15T09:11:17;2.90;;;2.23;;
38425;SDS011;24210;51.460;6.148;2022-11-15T09:13:45;2.70;;;1.90;;
38425;SDS011;24210;51.460;6.148;2022-11-15T09:16:10;2.47;;;1.93;;
38425;SDS011;24210;51.460;6.148;2022-11-15T09:18:36;4.07;;;2.75;;
38425;SDS011;24210;51.460;6.148;2022-11-15T09:21:02;5.33;;;1.97;;
38425;SDS011;24210;51.460;6.148;2022-11-15T09:23:27;4.50;;;2.00;;
38425;SDS011;24210;51.460;6.148;2022-11-15T09:25:57;3.67;;;2.20;;
38425;SDS011;24210;51.460;6.148;2022-11-15T09:28:22;2.75;;;2.13;;
38425;SDS011;24210;51.460;6.148;2022-11-15T09:30:48;2.27;;;1.67;;
38425;SDS011;24210;51.460;6.148;2022-11-15T09:33:13;1.17;;;1.00;;
38425;SDS011;24210;51.460;6.148;2022-11-15T09:35:38;5.67;;;1.20;;
38425;SDS011;24210;51.460;6.148;2022-11-15T09:38:04;3.80;;;1.37;;
38425;SDS011;24210;51.460;6.148;2022-11-15T09:40:30;1.83;;;0.90;;
38425;SDS011;24210;51.460;6.148;2022-11-15T09:48:17;4.88;;;1.00;;
38425;SDS011;24210;51.460;6.148;2022-11-15T09:50:48;3.58;;;0.60;;
38425;SDS011;24210;51.460;6.148;2022-11-15T09:53:14;2.28;;;0.73;;
38425;SDS011;24210;51.460;6.148;2022-11-15T09:55:46;1.60;;;0.40;;
38425;SDS011;24210;51.460;6.148;2022-11-15T10:00:42;2.28;;;0.50;;
38425;SDS011;24210;51.460;6.148;2022-11-15T10:05:39;3.20;;;0.50;;
38425;SDS011;24210;51.460;6.148;2022-11-15T10:08:11;1.75;;;0.50;;
38425;SDS011;24210;51.460;6.148;2022-11-15T10:10:43;1.27;;;0.40;;
38425;SDS011;24210;51.460;6.148;2022-11-15T10:15:41;1.65;;;0.50;;
38425;SDS011;24210;51.460;6.148;2022-11-15T10:20:56;2.45;;;0.70;;
38425;SDS011;24210;51.460;6.148;2022-11-15T10:23:23;2.13;;;0.40;;
38425;SDS011;24210;51.460;6.148;2022-11-15T10:25:53;2.00;;;0.43;;
38425;SDS011;24210;51.460;6.148;2022-11-15T10:28:31;0.68;;;0.30;;
38425;SDS011;24210;51.460;6.148;2022-11-15T10:30:57;1.75;;;0.40;;
38425;SDS011;24210;51.460;6.148;2022-11-15T10:33:35;1.52;;;0.20;;
38425;SDS011;24210;51.460;6.148;2022-11-15T10:41:16;1.00;;;0.57;;
38425;SDS011;24210;51.460;6.148;2022-11-15T10:49:35;4.20;;;0.75;;
38425;SDS011;24210;51.460;6.148;2022-11-15T10:54:29;1.87;;;0.43;;
38425;SDS011;24210;51.460;6.148;2022-11-15T10:59:30;0.30;;;0.20;;
38425;SDS011;24210;51.460;6.148;2022-11-15T11:01:57;1.00;;;0.40;;
38425;SDS011;24210;51.460;6.148;2022-11-15T11:04:22;2.53;;;0.30;;
38425;SDS011;24210;51.460;6.148;2022-11-15T11:09:38;0.75;;;0.25;;
38425;SDS011;24210;51.460;6.148;2022-11-15T11:12:04;3.28;;;0.70;;
38425;SDS011;24210;51.460;6.148;2022-11-15T11:14:34;3.17;;;0.50;;
38425;SDS011;24210;51.460;6.148;2022-11-15T11:17:18;2.97;;;0.63;;
38425;SDS011;24210;51.460;6.148;2022-11-15T11:27:36;2.47;;;0.45;;
38425;SDS011;24210;51.460;6.148;2022-11-15T11:30:08;5.47;;;0.50;;
38425;SDS011;24210;51.460;6.148;2022-11-15T11:32:44;3.15;;;0.40;;
38425;SDS011;24210;51.460;6.148;2022-11-15T11:35:13;1.70;;;0.30;;
38425;SDS011;24210;51.460;6.148;2022-11-15T11:37:42;0.57;;;0.22;;
38425;SDS011;24210;51.460;6.148;2022-11-15T11:50:44;2.80;;;0.70;;
38425;SDS011;24210;51.460;6.148;2022-11-15T11:55:55;1.65;;;0.55;;
38425;SDS011;24210;51.460;6.148;2022-11-15T12:00:52;1.27;;;0.30;;
38425;SDS011;24210;51.460;6.148;2022-11-15T12:03:26;3.15;;;0.70;;
38425;SDS011;24210;51.460;6.148;2022-11-15T12:05:54;3.22;;;0.52;;
38425;SDS011;24210;51.460;6.148;2022-11-15T12:08:33;3.28;;;0.40;;
38425;SDS011;24210;51.460;6.148;2022-11-15T12:11:09;5.57;;;0.60;;
38425;SDS011;24210;51.460;6.148;2022-11-15T12:13:36;2.15;;;0.30;;
38425;SDS011;24210;51.460;6.148;2022-11-15T12:18:26;3.80;;;0.43;;
38425;SDS011;24210;51.460;6.148;2022-11-15T12:21:00;6.82;;;6.05;;
38425;SDS011;24210;51.460;6.148;2022-11-15T12:23:29;5.07;;;3.60;;
38425;SDS011;24210;51.460;6.148;2022-11-15T12:26:00;3.42;;;0.45;;
38425;SDS011;24210;51.460;6.148;2022-11-15T12:31:17;2.60;;;0.35;;
38425;SDS011;24210;51.460;6.148;2022-11-15T12:33:44;0.77;;;0.17;;
38425;SDS011;24210;51.460;6.148;2022-11-15T12:36:11;5.28;;;0.52;;
38425;SDS011;24210;51.460;6.148;2022-11-15T12:38:56;1.77;;;0.60;;
38425;SDS011;24210;51.460;6.148;2022-11-15T12:41:23;1.33;;;0.60;;
38425;SDS011;24210;51.460;6.148;2022-11-15T12:49:01;3.42;;;0.70;;
38425;SDS011;24210;51.460;6.148;2022-11-15T13:02:20;3.72;;;0.47;;
38425;SDS011;24210;51.460;6.148;2022-11-15T13:04:46;2.17;;;1.70;;
38425;SDS011;24210;51.460;6.148;2022-11-15T13:07:55;4.23;;;1.20;;
38425;SDS011;24210;51.460;6.148;2022-11-15T13:09:56;2.45;;;0.30;;
38425;SDS011;24210;51.460;6.148;2022-11-15T13:14:50;1.90;;;0.50;;
38425;SDS011;24210;51.460;6.148;2022-11-15T13:19:41;3.57;;;0.77;;
38425;SDS011;24210;51.460;6.148;2022-11-15T13:22:10;5.93;;;1.07;;
38425;SDS011;24210;51.460;6.148;2022-11-15T13:24:54;1.45;;;0.40;;
38425;SDS011;24210;51.460;6.148;2022-11-15T13:27:19;4.20;;;0.93;;
38425;SDS011;24210;51.460;6.148;2022-11-15T13:29:45;2.23;;;0.33;;
38425;SDS011;24210;51.460;6.148;2022-11-15T13:32:11;3.07;;;0.50;;
38425;SDS011;24210;51.460;6.148;2022-11-15T13:34:38;2.50;;;0.40;;
38425;SDS011;24210;51.460;6.148;2022-11-15T13:37:04;1.23;;;0.37;;
38425;SDS011;24210;51.460;6.148;2022-11-15T13:39:34;1.80;;;0.32;;
38425;SDS011;24210;51.460;6.148;2022-11-15T13:42:02;2.63;;;0.40;;
38425;SDS011;24210;51.460;6.148;2022-11-15T13:44:28;0.93;;;0.30;;
38425;SDS011;24210;51.460;6.148;2022-11-15T13:47:20;2.95;;;0.88;;
38425;SDS011;24210;51.460;6.148;2022-11-15T13:49:40;0.70;;;0.30;;
38425;SDS011;24210;51.460;6.148;2022-11-15T13:52:06;3.03;;;0.37;;
38425;SDS011;24210;51.460;6.148;2022-11-15T13:59:30;3.10;;;0.77;;
38425;SDS011;24210;51.460;6.148;2022-11-15T14:01:57;3.47;;;0.43;;
38425;SDS011;24210;51.460;6.148;2022-11-15T14:04:24;7.00;;;0.65;;
38425;SDS011;24210;51.460;6.148;2022-11-15T14:06:51;1.65;;;0.38;;
38425;SDS011;24210;51.460;6.148;2022-11-15T14:11:56;4.55;;;0.50;;
38425;SDS011;24210;51.460;6.148;2022-11-15T14:14:22;2.78;;;0.38;;
38425;SDS011;24210;51.460;6.148;2022-11-15T14:16:52;1.65;;;0.63;;
38425;SDS011;24210;51.460;6.148;2022-11-15T14:24:30;3.70;;;0.82;;
38425;SDS011;24210;51.460;6.148;2022-11-15T14:26:56;17.15;;;1.55;;
38425;SDS011;24210;51.460;6.148;2022-11-15T14:29:28;2.47;;;0.93;;
38425;SDS011;24210;51.460;6.148;2022-11-15T14:31:54;3.05;;;0.20;;
38425;SDS011;24210;51.460;6.148;2022-11-15T14:36:55;2.08;;;1.00;;
38425;SDS011;24210;51.460;6.148;2022-11-15T14:39:20;3.47;;;0.67;;
38425;SDS011;24210;51.460;6.148;2022-11-15T14:41:47;5.15;;;0.95;;
38425;SDS011;24210;51.460;6.148;2022-11-15T14:44:12;5.70;;;1.53;;
38425;SDS011;24210;51.460;6.148;2022-11-15T14:46:37;5.83;;;0.50;;
38425;SDS011;24210;51.460;6.148;2022-11-15T14:49:02;4.63;;;0.67;;
38425;SDS011;24210;51.460;6.148;2022-11-15T14:51:28;2.40;;;0.63;;
38425;SDS011;24210;51.460;6.148;2022-11-15T14:53:53;3.17;;;0.50;;
38425;SDS011;24210;51.460;6.148;2022-11-15T14:56:20;3.22;;;0.63;;
38425;SDS011;24210;51.460;6.148;2022-11-15T14:58:45;1.63;;;0.33;;
38425;SDS011;24210;51.460;6.148;2022-11-15T15:01:17;4.23;;;0.50;;
38425;SDS011;24210;51.460;6.148;2022-11-15T15:03:44;1.63;;;0.50;;
38425;SDS011;24210;51.460;6.148;2022-11-15T15:06:09;2.57;;;0.40;;
38425;SDS011;24210;51.460;6.148;2022-11-15T15:08:34;3.33;;;0.73;;
38425;SDS011;24210;51.460;6.148;2022-11-15T15:11:00;3.50;;;0.63;;
38425;SDS011;24210;51.460;6.148;2022-11-15T15:13:25;4.33;;;1.10;;
38425;SDS011;24210;51.460;6.148;2022-11-15T15:15:51;2.60;;;1.07;;
38425;SDS011;24210;51.460;6.148;2022-11-15T15:18:16;1.53;;;0.90;;
38425;SDS011;24210;51.460;6.148;2022-11-15T15:20:43;5.30;;;1.10;;
38425;SDS011;24210;51.460;6.148;2022-11-15T15:23:18;2.30;;;1.00;;
38425;SDS011;24210;51.460;6.148;2022-11-15T15:25:44;7.03;;;2.13;;
38425;SDS011;24210;51.460;6.148;2022-11-15T15:28:10;3.58;;;1.25;;
38425;SDS011;24210;51.460;6.148;2022-11-15T15:30:36;4.93;;;2.00;;
38425;SDS011;24210;51.460;6.148;2022-11-15T15:33:01;2.90;;;0.80;;
38425;SDS011;24210;51.460;6.148;2022-11-15T15:35:28;2.50;;;0.80;;
38425;SDS011;24210;51.460;6.148;2022-11-15T15:37:54;1.02;;;0.65;;
38425;SDS011;24210;51.460;6.148;2022-11-15T15:40:20;2.63;;;0.93;;
38425;SDS011;24210;51.460;6.148;2022-11-15T15:42:46;9.65;;;1.15;;
38425;SDS011;24210;51.460;6.148;2022-11-15T15:45:11;3.73;;;1.97;;
38425;SDS011;24210;51.460;6.148;2022-11-15T15:47:37;2.90;;;1.30;;
38425;SDS011;24210;51.460;6.148;2022-11-15T15:50:02;5.43;;;1.47;;
38425;SDS011;24210;51.460;6.148;2022-11-15T15:52:28;3.13;;;1.40;;
38425;SDS011;24210;51.460;6.148;2022-11-15T15:54:53;7.00;;;1.50;;
38425;SDS011;24210;51.460;6.148;2022-11-15T15:57:18;2.50;;;1.00;;
38425;SDS011;24210;51.460;6.148;2022-11-15T15:59:44;5.73;;;1.67;;
38425;SDS011;24210;51.460;6.148;2022-11-15T16:02:12;4.63;;;1.30;;
38425;SDS011;24210;51.460;6.148;2022-11-15T16:04:37;2.22;;;1.38;;
38425;SDS011;24210;51.460;6.148;2022-11-15T16:07:03;3.63;;;1.57;;
38425;SDS011;24210;51.460;6.148;2022-11-15T16:09:29;2.08;;;1.45;;
38425;SDS011;24210;51.460;6.148;2022-11-15T16:12:13;5.90;;;1.75;;
38425;SDS011;24210;51.460;6.148;2022-11-15T16:14:39;3.03;;;1.98;;
38425;SDS011;24210;51.460;6.148;2022-11-15T16:17:04;5.07;;;2.03;;
38425;SDS011;24210;51.460;6.148;2022-11-15T16:19:30;4.13;;;1.60;;
38425;SDS011;24210;51.460;6.148;2022-11-15T16:21:55;7.27;;;2.57;;
38425;SDS011;24210;51.460;6.148;2022-11-15T16:24:20;2.97;;;1.80;;
38425;SDS011;24210;51.460;6.148;2022-11-15T16:26:46;3.30;;;1.90;;
38425;SDS011;24210;51.460;6.148;2022-11-15T16:29:12;4.82;;;2.08;;
38425;SDS011;24210;51.460;6.148;2022-11-15T16:31:37;3.17;;;1.57;;
38425;SDS011;24210;51.460;6.148;2022-11-15T16:34:02;2.60;;;1.90;;
38425;SDS011;24210;51.460;6.148;2022-11-15T16:36:29;3.20;;;1.87;;
38425;SDS011;24210;51.460;6.148;2022-11-15T16:38:55;3.97;;;2.33;;
38425;SDS011;24210;51.460;6.148;2022-11-15T16:41:20;4.03;;;2.43;;
38425;SDS011;24210;51.460;6.148;2022-11-15T16:43:45;2.33;;;2.10;;
38425;SDS011;24210;51.460;6.148;2022-11-15T16:46:15;4.97;;;2.60;;
38425;SDS011;24210;51.460;6.148;2022-11-15T16:48:41;4.35;;;2.40;;
38425;SDS011;24210;51.460;6.148;2022-11-15T16:51:06;2.70;;;2.33;;
38425;SDS011;24210;51.460;6.148;2022-11-15T16:53:32;3.77;;;2.50;;